createdAt,value
2022-11-12T00:00:34.160Z,52.73
2022-11-12T00:03:21.221Z,28.60
2022-11-12T00:06:08.240Z,13.50
2022-11-12T00:08:54.959Z,23.17
2022-11-12T00:11:43.189Z,17.73
2022-11-12T00:14:29.926Z,17.70
2022-11-12T00:17:18.002Z,47.90
2022-11-12T00:20:05.686Z,23.50
2022-11-12T00:22:52.371Z,29.30
2022-11-12T00:25:39.205Z,11.60
2022-11-12T00:28:27.617Z,29.77
2022-11-12T00:31:14.953Z,34.23
2022-11-12T00:34:02.678Z,39.50
2022-11-12T00:36:49.449Z,55.10
2022-11-12T00:39:36.261Z,24.63
2022-11-12T00:42:23.146Z,13.97
2022-11-12T00:45:11.723Z,49.60
2022-11-12T00:47:58.655Z,101.87
2022-11-12T00:50:45.157Z,89.60
2022-11-12T00:53:31.881Z,80.10
2022-11-12T00:56:18.547Z,14.87
2022-11-12T00:59:05.498Z,17.13
2022-11-12T01:01:56.872Z,47.77
2022-11-12T01:04:43.521Z,57.63
2022-11-12T01:07:30.360Z,37.13
2022-11-12T01:10:17.113Z,129.70
2022-11-12T01:13:03.744Z,130.53
2022-11-12T01:15:50.416Z,77.60
2022-11-12T01:18:38.668Z,115.20
2022-11-12T01:21:26.667Z,72.03
2022-11-12T01:24:13.757Z,63.37
2022-11-12T01:27:00.280Z,44.23
2022-11-12T01:29:47.224Z,38.03
2022-11-12T01:32:36.809Z,80.80
2022-11-12T01:35:25.036Z,182.60
2022-11-12T01:38:11.488Z,123.37
2022-11-12T01:40:57.993Z,55.30
2022-11-12T01:43:44.891Z,127.00
2022-11-12T01:46:31.439Z,45.47
2022-11-12T01:49:23.630Z,59.67
2022-11-12T01:52:18.148Z,156.23
2022-11-12T01:55:10.067Z,34.17
2022-11-12T01:58:02.908Z,22.27
2022-11-12T02:00:50.565Z,41.33
2022-11-12T02:03:37.686Z,15.03
2022-11-12T02:06:25.693Z,54.70
2022-11-12T02:09:15.071Z,46.70
2022-11-12T02:12:02.332Z,46.10
2022-11-12T02:14:47.952Z,26.33
2022-11-12T02:17:34.808Z,63.70
2022-11-12T02:20:21.998Z,76.13
2022-11-12T02:23:13.216Z,20.03
2022-11-12T02:26:00.811Z,53.23
2022-11-12T02:28:47.824Z,74.67
2022-11-12T02:31:34.702Z,33.93
2022-11-12T02:34:21.635Z,120.40
2022-11-12T02:37:08.782Z,132.53
2022-11-12T02:39:56.960Z,25.03
2022-11-12T02:42:43.485Z,44.27
2022-11-12T02:45:32.169Z,102.87
2022-11-12T02:48:19.432Z,32.07
2022-11-12T02:51:06.940Z,47.00
2022-11-12T02:53:53.726Z,71.97
2022-11-12T02:56:41.476Z,63.47
2022-11-12T02:59:28.122Z,37.30
2022-11-12T03:02:14.881Z,119.90
2022-11-12T03:05:01.775Z,10.60
2022-11-12T03:07:48.263Z,29.30
2022-11-12T03:10:37.958Z,38.33
2022-11-12T03:13:26.122Z,10.70
2022-11-12T03:16:12.943Z,31.73
2022-11-12T03:18:59.654Z,26.03
2022-11-12T03:21:46.568Z,23.60
2022-11-12T03:24:33.141Z,99.07
2022-11-12T03:27:20.058Z,46.57
2022-11-12T03:30:09.024Z,47.80
2022-11-12T03:32:55.666Z,35.37
2022-11-12T03:35:42.482Z,16.00
2022-11-12T03:38:29.392Z,18.53
2022-11-12T03:41:16.083Z,29.33
2022-11-12T03:44:02.736Z,43.57
2022-11-12T03:46:50.618Z,43.27
2022-11-12T03:49:37.369Z,32.85
2022-11-12T03:52:24.384Z,12.30
2022-11-12T03:55:11.271Z,17.03
2022-11-12T03:57:58.783Z,33.57
2022-11-12T04:00:45.749Z,6.60
2022-11-12T04:03:33.985Z,8.60
2022-11-12T04:06:38.551Z,9.63
2022-11-12T04:09:25.389Z,6.57
2022-11-12T04:12:25.982Z,20.10
2022-11-12T04:15:12.955Z,11.73
2022-11-12T04:18:17.173Z,13.32
2022-11-12T04:21:22.385Z,4.23
2022-11-12T04:24:29.030Z,20.40
2022-11-12T04:27:16.691Z,12.23
2022-11-12T04:30:19.034Z,16.60
2022-11-12T04:33:05.801Z,7.33
2022-11-12T04:35:52.536Z,4.13
2022-11-12T04:38:40.632Z,14.87
2022-11-12T04:41:44.816Z,16.43
2022-11-12T04:44:48.942Z,26.03
2022-11-12T04:47:38.216Z,15.17
2022-11-12T04:50:24.783Z,6.47
2022-11-12T04:53:12.010Z,5.07
2022-11-12T04:56:00.499Z,5.63
2022-11-12T04:58:47.679Z,16.60
2022-11-12T05:01:34.584Z,5.03
2022-11-12T05:04:21.946Z,8.00
2022-11-12T05:07:09.121Z,7.55
2022-11-12T05:09:55.871Z,4.93
2022-11-12T05:12:44.940Z,7.35
2022-11-12T05:15:31.399Z,10.53
2022-11-12T05:18:17.871Z,9.03
2022-11-12T05:21:24.840Z,19.83
2022-11-12T05:24:27.409Z,11.10
2022-11-12T05:27:20.585Z,12.10
2022-11-12T05:30:09.734Z,8.53
2022-11-12T05:32:56.183Z,9.03
2022-11-12T05:35:42.668Z,13.30
2022-11-12T05:38:29.522Z,7.60
2022-11-12T05:41:20.141Z,12.80
2022-11-12T05:44:07.412Z,9.80
2022-11-12T05:46:55.513Z,21.83
2022-11-12T05:49:42.325Z,10.73
2022-11-12T05:52:28.747Z,12.20
2022-11-12T05:55:15.497Z,9.43
2022-11-12T05:58:06.290Z,11.00
2022-11-12T06:00:52.904Z,13.10
2022-11-12T06:03:41.071Z,11.17
2022-11-12T06:06:27.600Z,9.70
2022-11-12T06:09:14.095Z,11.57
2022-11-12T06:12:00.864Z,12.77
2022-11-12T06:14:47.555Z,9.83
2022-11-12T06:17:34.404Z,8.90
2022-11-12T06:20:22.565Z,9.80
2022-11-12T06:23:09.387Z,9.10
2022-11-12T06:25:55.882Z,12.20
2022-11-12T06:28:42.848Z,9.80
2022-11-12T06:31:29.567Z,10.37
2022-11-12T06:34:16.261Z,12.40
2022-11-12T06:37:10.264Z,10.60
2022-11-12T06:44:48.497Z,10.47
2022-11-12T06:47:36.621Z,9.80
2022-11-12T06:50:25.833Z,10.23
2022-11-12T06:53:19.447Z,11.73
2022-11-12T06:56:12.704Z,11.68
2022-11-12T06:59:42.467Z,10.60
2022-11-12T07:02:31.579Z,8.67
2022-11-12T07:05:19.651Z,9.18
2022-11-12T07:08:09.964Z,8.93
2022-11-12T07:10:59.272Z,11.47
2022-11-12T07:13:46.521Z,7.90
2022-11-12T07:16:33.599Z,8.53
2022-11-12T07:19:20.398Z,8.83
2022-11-12T07:22:06.982Z,8.40
2022-11-12T07:24:58.813Z,7.83
2022-11-12T07:27:47.361Z,13.07
2022-11-12T07:30:34.252Z,8.57
2022-11-12T07:33:22.159Z,8.03
2022-11-12T07:36:10.739Z,8.30
2022-11-12T07:38:57.548Z,7.83
2022-11-12T07:41:46.833Z,7.73
2022-11-12T07:45:05.496Z,12.30
2022-11-12T08:12:53.568Z,9.73
2022-11-12T08:20:33.772Z,10.30
2022-11-12T08:23:46.216Z,8.67
2022-11-12T08:26:35.664Z,8.13
2022-11-12T08:52:25.801Z,7.70
2022-11-12T08:55:38.358Z,8.07
2022-11-12T09:07:53.531Z,10.90
2022-11-12T09:10:47.056Z,8.37
2022-11-12T09:13:36.708Z,8.30
2022-11-12T09:16:25.373Z,8.43
2022-11-12T09:30:48.530Z,8.80
2022-11-12T09:44:22.772Z,8.45
2022-11-12T09:47:27.263Z,8.90
2022-11-12T10:17:07.719Z,10.20
2022-11-12T11:16:31.984Z,10.93
2022-11-12T11:19:19.735Z,9.07
2022-11-12T11:22:27.937Z,9.13
2022-11-12T11:25:21.650Z,9.17
2022-11-12T11:51:41.519Z,8.87
2022-11-12T11:54:52.313Z,8.70
2022-11-12T11:58:00.452Z,11.30
2022-11-12T12:04:43.936Z,9.07
2022-11-12T12:07:49.280Z,9.07
2022-11-12T12:14:13.919Z,9.70
2022-11-12T12:17:11.290Z,10.90
2022-11-12T12:20:07.256Z,9.47
2022-11-12T12:23:01.789Z,9.53
2022-11-12T12:25:50.339Z,8.93
2022-11-12T12:28:41.341Z,9.47
2022-11-12T12:31:33.648Z,9.10
2022-11-12T12:34:26.526Z,10.23
2022-11-12T12:37:38.772Z,10.30
2022-11-12T12:40:52.633Z,10.00
2022-11-12T12:43:48.784Z,9.70
2022-11-12T12:47:29.088Z,10.60
2022-11-12T12:50:19.340Z,9.53
2022-11-12T12:53:17.705Z,9.40
2022-11-12T13:03:54.147Z,9.00
2022-11-12T13:06:54.301Z,9.00
2022-11-12T13:09:41.875Z,8.57
2022-11-12T13:13:02.963Z,14.27
2022-11-12T13:15:53.918Z,11.10
2022-11-12T13:19:02.195Z,13.33
2022-11-12T13:22:09.898Z,11.33
2022-11-12T13:25:28.189Z,11.80
2022-11-12T13:28:15.393Z,11.38
2022-11-12T13:31:06.025Z,10.50
2022-11-12T13:33:53.604Z,11.50
2022-11-12T13:36:42.003Z,11.13
2022-11-12T13:39:33.076Z,14.70
2022-11-12T13:42:37.782Z,12.00
2022-11-12T13:45:27.587Z,11.57
2022-11-12T13:48:27.178Z,11.10
2022-11-12T13:51:22.756Z,12.50
2022-11-12T13:54:33.520Z,14.90
2022-11-12T13:57:41.396Z,14.47
2022-11-12T14:00:48.991Z,15.77
2022-11-12T14:03:45.438Z,16.50
2022-11-12T14:06:46.112Z,17.90
2022-11-12T14:14:06.621Z,16.70
2022-11-12T14:17:06.794Z,15.70
2022-11-12T14:20:26.529Z,18.70
2022-11-12T14:23:25.069Z,20.87
2022-11-12T14:26:34.825Z,20.30
2022-11-12T14:29:23.409Z,17.97
2022-11-12T14:32:15.088Z,21.60
2022-11-12T14:35:02.705Z,28.53
2022-11-12T14:37:56.032Z,21.13
2022-11-12T14:40:58.952Z,19.77
2022-11-12T15:17:30.337Z,29.53
2022-11-12T15:20:29.393Z,27.30
2022-11-12T15:23:19.772Z,26.97
2022-11-12T15:51:15.436Z,35.17
2022-11-12T15:54:10.510Z,34.77
2022-11-12T16:02:32.773Z,35.93
2022-11-12T16:06:24.559Z,38.53
2022-11-12T16:53:55.218Z,36.25
2022-11-12T16:56:43.091Z,34.40
2022-11-12T16:59:35.729Z,36.17
2022-11-12T17:02:26.557Z,36.20
2022-11-12T17:05:16.513Z,41.37
2022-11-12T17:08:03.496Z,36.63
2022-11-12T17:10:51.726Z,43.00
2022-11-12T17:18:23.601Z,36.00
2022-11-12T17:21:23.852Z,37.30
2022-11-12T17:24:11.198Z,33.73
2022-11-12T17:27:15.444Z,37.03
2022-11-12T17:34:37.349Z,36.65
2022-11-12T17:45:56.013Z,40.03
2022-11-12T17:49:12.394Z,39.10
2022-11-12T17:52:01.257Z,41.43
2022-11-12T17:59:07.547Z,42.25
2022-11-12T18:02:20.341Z,33.63
2022-11-12T18:05:08.606Z,37.00
2022-11-12T18:19:04.441Z,29.30
2022-11-12T18:21:56.974Z,40.80
2022-11-12T18:24:59.370Z,36.80
2022-11-12T18:27:56.500Z,30.60
2022-11-12T18:30:44.206Z,34.03
2022-11-12T18:33:32.727Z,59.40
2022-11-12T18:36:24.344Z,36.43
2022-11-12T18:39:14.876Z,39.43
2022-11-12T18:42:02.533Z,41.57
2022-11-12T18:45:44.416Z,36.77
2022-11-12T18:48:33.845Z,40.90
2022-11-12T18:51:24.017Z,34.53
2022-11-12T18:54:13.000Z,36.23
2022-11-12T18:57:00.678Z,38.00
2022-11-12T18:59:48.299Z,35.10
2022-11-12T19:02:40.442Z,38.90
2022-11-12T19:05:28.306Z,36.13
2022-11-12T19:08:15.462Z,41.73
2022-11-12T19:11:22.890Z,31.87
2022-11-12T19:14:10.282Z,35.93
2022-11-12T19:16:57.402Z,39.23
2022-11-12T19:23:10.458Z,33.73
2022-11-12T19:25:57.799Z,30.20
2022-11-12T19:28:48.439Z,34.93
2022-11-12T19:31:35.565Z,34.83
2022-11-12T19:34:22.365Z,33.07
2022-11-12T19:37:32.453Z,31.52
2022-11-12T19:40:16.141Z,32.70
2022-11-12T19:43:03.343Z,33.63
2022-11-12T19:45:51.764Z,30.97
2022-11-12T19:48:38.663Z,31.17
2022-11-12T19:51:25.500Z,33.57
2022-11-12T19:54:15.680Z,32.70
2022-11-12T19:57:03.085Z,41.73
2022-11-12T19:59:49.921Z,39.70
2022-11-12T20:02:38.126Z,28.17
2022-11-12T20:05:25.409Z,37.70
2022-11-12T20:08:12.278Z,33.38
2022-11-12T20:10:58.825Z,28.03
2022-11-12T20:13:45.332Z,43.73
2022-11-12T20:16:33.042Z,33.63
2022-11-12T20:19:20.943Z,34.90
2022-11-12T20:22:07.449Z,37.23
2022-11-12T20:24:54.325Z,35.20
2022-11-12T20:27:41.025Z,30.77
2022-11-12T20:30:27.551Z,35.10
2022-11-12T20:33:14.591Z,32.73
2022-11-12T20:36:07.742Z,34.80
2022-11-12T20:38:54.435Z,36.90
2022-11-12T20:41:41.180Z,26.50
2022-11-12T20:44:28.084Z,30.33
2022-11-12T20:47:14.701Z,29.57
2022-11-12T20:50:01.445Z,26.20
2022-11-12T20:52:50.111Z,37.33
2022-11-12T20:55:37.009Z,34.03
2022-11-12T20:58:24.736Z,28.90
2022-11-12T21:01:13.879Z,30.03
2022-11-12T21:04:00.954Z,33.90
2022-11-12T21:06:48.364Z,32.10
2022-11-12T21:09:36.859Z,30.17
2022-11-12T21:12:23.903Z,34.63
2022-11-12T21:15:11.045Z,24.03
2022-11-12T21:17:57.404Z,25.70
2022-11-12T21:20:44.716Z,23.10
2022-11-12T21:23:32.448Z,24.33
2022-11-12T21:26:22.820Z,23.93
2022-11-12T21:29:09.874Z,22.60
2022-11-12T21:31:56.403Z,23.90
2022-11-12T21:34:43.185Z,22.57
2022-11-12T21:37:30.389Z,21.77
2022-11-12T21:40:17.882Z,23.20
2022-11-12T21:43:07.150Z,28.93
2022-11-12T21:45:54.117Z,27.03
2022-11-12T21:48:40.588Z,27.37
2022-11-12T21:51:29.452Z,24.83
2022-11-12T21:54:16.394Z,19.77
2022-11-12T21:57:03.262Z,25.53
2022-11-12T21:59:51.296Z,28.13
2022-11-12T22:02:38.074Z,60.20
2022-11-12T22:05:24.972Z,25.60
2022-11-12T22:08:11.504Z,55.43
2022-11-12T22:11:03.183Z,45.43
2022-11-12T22:13:50.108Z,59.07
2022-11-12T22:16:38.599Z,31.77
2022-11-12T22:19:25.310Z,35.40
2022-11-12T22:22:12.251Z,30.00
2022-11-12T22:24:58.900Z,39.70
2022-11-12T22:27:46.468Z,62.70
2022-11-12T22:30:33.092Z,39.33
2022-11-12T22:33:21.324Z,65.67
2022-11-12T22:36:11.120Z,48.53
2022-11-12T22:38:58.326Z,31.07
2022-11-12T22:41:44.985Z,53.40
2022-11-12T22:44:31.787Z,43.60
2022-11-12T22:47:18.727Z,31.97
2022-11-12T22:50:08.202Z,48.13
2022-11-12T22:52:56.300Z,31.53
2022-11-12T22:55:43.205Z,49.10
2022-11-12T22:58:30.279Z,49.90
2022-11-12T23:01:22.444Z,39.73
2022-11-12T23:04:09.101Z,38.23
2022-11-12T23:06:57.135Z,40.37
2022-11-12T23:09:43.794Z,41.80
2022-11-12T23:12:30.378Z,42.13
2022-11-12T23:15:17.530Z,50.63
2022-11-12T23:18:04.580Z,38.15
2022-11-12T23:20:51.322Z,46.97
2022-11-12T23:23:39.942Z,23.37
2022-11-12T23:26:28.642Z,27.47
2022-11-12T23:29:15.311Z,30.30
2022-11-12T23:32:02.151Z,33.27
2022-11-12T23:34:48.899Z,49.13
2022-11-12T23:37:35.511Z,38.90
2022-11-12T23:40:27.167Z,31.97
2022-11-12T23:43:17.223Z,34.97
2022-11-12T23:46:03.877Z,49.30
2022-11-12T23:48:50.799Z,35.50
2022-11-12T23:51:37.324Z,41.07
2022-11-12T23:54:24.099Z,30.73
2022-11-12T23:57:12.408Z,49.50
2022-11-12T23:59:59.183Z,34.10
